Latest Weather Observations for Merimbula

IDN60801

Issued at 1:03 pm EST Tuesday 30 June 2015 (issued every 30 minutes, with the page automatically refreshed every 10 minutes)

About weather observations | Map of weather stations | Latest weather observations for NSW | Other Formats
Station Details ID: 069147 Name: MERIMBULA AIRPORT AWS Lat: -36.91 Lon: 149.90 Height: 1.5 m
Data from the previous 72 hours. | See also: Recent months at Merimbula
Date/Time
EST
Temp
°C
App
Temp
°C
Dew
Point
Rel
Hum
%
Delta-T
°C
Wind Press
QNH
hPa
Press
MSL
hPa
Rain
since 9 am
mm
Dir
 
Spd
km/h
Gust
km/h
Spd
kts
Gust
kts
30/01:00pm 16.1 14.6 10.4 69 3.0 ESE 9 13 5 7 1024.9 1024.9 0.0
30/12:30pm 15.7 13.7 10.2 70 2.9 E 11 15 6 8 1025.3 1025.3 0.0
30/12:00pm 15.4 13.5 10.6 73 2.5 ESE 11 15 6 8 1025.8 1025.8 0.0
30/11:30am 15.1 15.2 10.3 73 2.5 CALM 0 0 0 0 1026.4 1026.4 0.0
30/11:00am 13.7 13.6 9.6 76 2.1 CALM 0 0 0 0 1026.8 1026.8 0.0
30/10:30am 12.9 12.8 9.4 79 1.8 CALM 0 6 0 3 1027.3 1027.3 0.0
30/10:00am 11.6 9.6 8.6 82 1.5 WNW 9 13 5 7 1027.5 1027.5 0.0
30/09:30am 10.7 10.3 9.8 94 0.5 W 2 6 1 3 1027.6 1027.6 0.0
30/09:00am 9.2 9.0 8.9 98 0.1 CALM 0 0 0 0 1027.8 1027.8 0.0
30/08:30am 8.4 6.3 8.3 99 0.0 NW 9 11 5 6 1027.8 1027.8 0.0
30/08:07am 6.2 5.3 5.9 98 0.1 CALM 0 0 0 0 1027.8 1027.8 0.0
30/08:00am 5.9 4.9 5.5 97 0.2 CALM 0 0 0 0 1027.8 1027.8 0.0
30/07:30am 4.7 3.4 4.3 97 0.2 CALM 0 0 0 0 1027.9 1027.9 0.0
30/07:00am 4.4 1.9 3.8 96 0.2 SW 6 6 3 3 1028.0 1028.0 0.0
30/06:38am 5.0 2.7 4.6 97 0.2 W 6 7 3 4 1027.9 1027.9 0.0
30/06:30am 5.3 2.8 4.9 97 0.2 SW 7 9 4 5 1027.8 1027.8 0.0
30/06:00am 5.2 2.3 4.8 97 0.2 SW 9 11 5 6 1027.8 1027.8 0.0
30/05:56am 5.2 2.3 4.8 97 0.2 SW 9 11 5 6 1027.7 1027.7 0.0
30/05:30am 4.8 2.8 4.2 96 0.3 SW 4 7 2 4 1027.6 1027.6 0.0
30/05:25am 5.2 2.7 4.6 96 0.3 WSW 7 9 4 5 1027.6 1027.6 0.0
30/05:00am 5.5 3.0 4.9 96 0.3 SW 7 9 4 5 1027.5 1027.5 0.0
30/04:52am 5.5 2.6 4.9 96 0.3 SW 9 9 5 5 1027.5 1027.5 0.0
30/04:39am 5.6 3.1 5.0 96 0.3 SW 7 9 4 5 1027.5 1027.5 0.0
30/04:38am 5.6 3.1 5.0 96 0.3 SW 7 9 4 5 1027.5 1027.5 0.0
30/04:30am 5.2 2.7 4.5 95 0.3 SW 7 9 4 5 1027.5 1027.5 0.0
30/04:00am 5.5 3.2 4.8 95 0.3 W 6 7 3 4 1027.8 1027.8 0.0
30/03:56am 5.8 3.6 5.1 95 0.3 WSW 6 7 3 4 1027.8 1027.8 0.0
30/03:30am 6.4 4.1 5.7 95 0.3 SW 7 9 4 5 1027.8 1027.8 0.0
30/03:00am 7.0 6.2 6.4 96 0.3 CALM 0 0 0 0 1028.1 1028.1 0.0
30/02:30am 7.0 6.2 6.3 95 0.3 CALM 0 0 0 0 1028.2 1028.2 0.0
30/02:00am 7.7 7.0 7.1 96 0.3 CALM 0 0 0 0 1028.5 1028.5 0.0
30/01:30am 7.6 6.9 7.0 96 0.3 CALM 0 0 0 0 1028.6 1028.6 0.0
30/01:00am 7.4 6.6 6.7 95 0.3 CALM 0 0 0 0 1028.5 1028.5 0.0
30/12:30am 7.9 7.3 7.3 96 0.3 CALM 0 0 0 0 1028.8 1028.8 0.0
30/12:00am 8.0 7.4 7.4 96 0.3 CALM 0 0 0 0 1029.1 1029.1 0.0
 
Date/Time
EST
Temp
°C
App
Temp
°C
Dew
Point
Rel
Hum
%
Delta-T
°C
Wind Press
QNH
hPa
Press
MSL
hPa
Rain
since 9 am
mm
Dir
 
Spd
km/h
Gust
km/h
Spd
kts
Gust
kts
29/11:30pm 8.2 7.6 7.6 96 0.3 CALM 0 0 0 0 1029.3 1029.3 0.0
29/11:00pm 7.7 7.0 7.1 96 0.3 CALM 0 0 0 0 1029.8 1029.8 0.0
29/10:52pm 7.8 7.2 7.2 96 0.3 CALM 0 0 0 0 1029.8 1029.8 0.0
29/10:34pm 7.6 6.9 7.0 96 0.3 CALM 0 0 0 0 1030.0 1030.0 0.0
29/10:31pm 7.6 6.9 7.0 96 0.3 CALM 0 0 0 0 1030.0 1030.0 0.0
29/10:30pm 7.7 7.0 7.1 96 0.3 CALM 0 0 0 0 1030.0 1030.0 0.0
29/10:12pm 7.1 6.2 6.2 94 0.4 CALM 0 0 0 0 1030.2 1030.2 0.0
29/10:00pm 7.2 6.3 6.1 93 0.5 CALM 0 0 0 0 1030.3 1030.3 0.0
29/09:30pm 8.5 8.0 7.9 96 0.3 CALM 0 0 0 0 1030.6 1030.6 0.0
29/09:00pm 8.5 8.0 7.9 96 0.3 CALM 0 0 0 0 1030.9 1030.9 0.0
29/08:31pm 7.6 6.9 7.0 96 0.3 CALM 0 0 0 0 1031.0 1031.0 0.0
29/08:30pm 7.8 7.2 7.2 96 0.3 CALM 0 0 0 0 1031.0 1031.0 0.0
29/08:10pm 6.9 5.9 5.8 93 0.5 CALM 0 0 0 0 1031.1 1031.1 0.0
29/08:00pm 7.0 6.1 5.9 93 0.5 CALM 0 0 0 0 1031.2 1031.2 0.0
29/07:30pm 7.7 7.0 6.8 94 0.4 CALM 0 0 0 0 1031.2 1031.2 0.0
29/07:00pm 8.0 7.3 6.9 93 0.5 CALM 0 0 0 0 1031.1 1031.1 0.0
29/06:30pm 8.3 7.6 6.9 91 0.6 CALM 0 0 0 0 1030.8 1030.8 0.0
29/06:00pm 8.9 8.3 7.4 90 0.7 CALM 0 0 0 0 1030.6 1030.6 0.0
29/05:30pm 10.0 9.6 8.3 89 0.8 CALM 0 0 0 0 1030.4 1030.4 0.0
29/05:00pm 10.7 10.2 7.9 83 1.3 CALM 0 0 0 0 1030.3 1030.3 0.0
29/04:30pm 13.3 13.0 8.6 73 2.4 CALM 0 0 0 0 1030.3 1030.3 0.0
29/04:00pm 14.9 14.8 9.3 69 2.8 CALM 0 0 0 0 1030.4 1030.4 0.0
29/03:30pm 14.8 13.2 8.7 67 3.1 E 7 11 4 6 1030.3 1030.3 0.0
29/03:00pm 15.1 13.6 8.6 65 3.3 ENE 6 11 3 6 1030.1 1030.1 0.0
29/02:30pm 15.1 13.3 8.1 63 3.5 E 7 11 4 6 1030.0 1030.0 0.0
29/02:00pm 15.0 13.0 8.7 66 3.2 E 9 13 5 7 1030.2 1030.2 0.0
29/01:30pm 14.9 12.5 8.6 66 3.2 E 11 15 6 8 1030.6 1030.6 0.0
29/01:00pm 15.0 13.0 8.7 66 3.2 ENE 9 15 5 8 1030.7 1030.7 0.0
29/12:30pm 14.7 12.2 8.2 65 3.3 ESE 11 15 6 8 1031.1 1031.1 0.0
29/12:00pm 14.9 14.1 8.2 64 3.3 NE 2 11 1 6 1031.5 1031.5 0.0
29/11:30am 15.0 14.6 8.3 64 3.4 CALM 0 0 0 0 1032.0 1032.0 0.0
29/11:00am 13.8 13.1 6.9 63 3.3 CALM 0 0 0 0 1032.6 1032.6 0.0
29/10:30am 12.5 11.9 7.2 70 2.6 CALM 0 0 0 0 1033.2 1033.2 0.0
29/10:00am 10.6 10.0 7.3 80 1.6 CALM 0 0 0 0 1033.5 1033.5 0.0
29/09:30am 8.8 8.2 7.3 90 0.7 CALM 0 0 0 0 1033.5 1033.5 0.0
29/09:00am 7.4 6.6 6.7 95 0.3 CALM 0 0 0 0 1033.5 1033.5 0.0
29/08:30am 6.0 5.0 5.6 97 0.2 CALM 0 0 0 0 1033.4 1033.4 0.0
29/08:00am 4.6 2.0 4.3 98 0.1 WSW 7 7 4 4 1033.4 1033.4 0.0
29/07:34am 4.2 1.1 3.8 97 0.2 NW 9 11 5 6 1033.4 1033.4 0.0
29/07:30am 3.9 1.2 3.5 97 0.2 NW 7 11 4 6 1033.3 1033.3 0.0
29/07:16am 3.8 2.4 3.4 97 0.2 CALM 0 6 0 3 1033.3 1033.3 0.0
29/07:00am 4.4 1.4 4.0 97 0.2 NW 9 13 5 7 1033.3 1033.3 0.0
29/06:30am 3.5 0.9 3.1 97 0.2 W 6 9 3 5 1033.1 1033.1 0.0
29/06:00am 4.4 1.4 4.1 98 0.1 WNW 9 11 5 6 1033.0 1033.0 0.0
29/05:30am 3.7 1.1 3.3 97 0.2 WSW 6 9 3 5 1032.8 1032.8 0.0
29/05:25am 3.5 0.7 3.1 97 0.2 WSW 7 9 4 5 1032.7 1032.7 0.0
29/05:02am 3.5 0.9 3.1 97 0.2 WSW 6 9 3 5 1032.7 1032.7 0.0
29/05:00am 3.7 1.1 3.3 97 0.2 WSW 6 9 3 5 1032.7 1032.7 0.0
29/04:57am 3.6 0.8 3.2 97 0.2 WNW 7 9 4 5 1032.7 1032.7 0.0
29/04:45am 3.5 2.0 2.9 96 0.2 CALM 0 0 0 0 1032.7 1032.7 0.0
29/04:30am 3.8 2.4 3.4 97 0.2 CALM 0 0 0 0 1032.7 1032.7 0.0
29/04:00am 3.7 2.2 3.1 96 0.2 CALM 0 0 0 0 1032.8 1032.8 0.0
29/03:30am 3.9 2.5 3.5 97 0.2 CALM 0 0 0 0 1032.8 1032.8 0.0
29/03:24am 3.6 2.1 3.2 97 0.2 CALM 0 0 0 0 1032.8 1032.8 0.0
29/03:00am 3.3 1.7 2.7 96 0.2 CALM 0 0 0 0 1032.9 1032.9 0.0
29/02:55am 3.6 2.1 3.0 96 0.2 CALM 0 0 0 0 1032.9 1032.9 0.0
29/02:43am 3.4 1.9 2.8 96 0.2 CALM 0 0 0 0 1032.9 1032.9 0.0
29/02:30am 3.6 2.1 3.0 96 0.2 CALM 0 0 0 0 1032.8 1032.8 0.0
29/02:13am 4.1 2.7 3.5 96 0.2 CALM 0 0 0 0 1032.7 1032.7 0.0
29/02:00am 4.5 3.2 3.9 96 0.2 CALM 0 0 0 0 1032.8 1032.8 0.0
29/01:30am 4.4 3.0 3.8 96 0.2 CALM 0 0 0 0 1032.7 1032.7 0.0
29/01:17am 4.2 2.8 3.6 96 0.2 CALM 0 0 0 0 1032.7 1032.7 0.0
29/01:00am 4.7 3.4 4.1 96 0.2 CALM 0 4 0 2 1032.8 1032.8 0.0
29/12:52am 5.1 2.8 4.7 97 0.2 WNW 6 11 3 6 1032.7 1032.7 0.0
29/12:49am 5.4 2.9 5.0 97 0.2 NW 7 11 4 6 1032.7 1032.7 0.0
29/12:30am 4.5 3.1 3.8 95 0.3 CALM 0 0 0 0 1032.8 1032.8 0.0
29/12:00am 4.8 2.7 4.1 95 0.3 WSW 4 9 2 5 1033.0 1033.0 0.0
 
Date/Time
EST
Temp
°C
App
Temp
°C
Dew
Point
Rel
Hum
%
Delta-T
°C
Wind Press
QNH
hPa
Press
MSL
hPa
Rain
since 9 am
mm
Dir
 
Spd
km/h
Gust
km/h
Spd
kts
Gust
kts
28/11:40pm 4.6 3.3 3.9 95 0.3 CALM 0 0 0 0 1033.1 1033.1 0.0
28/11:30pm 4.9 2.9 4.2 95 0.3 SW 4 7 2 4 1033.2 1033.2 0.0
28/11:00pm 5.2 4.0 4.5 95 0.3 CALM 0 0 0 0 1033.1 1033.1 0.0
28/10:30pm 5.2 3.9 4.3 94 0.4 CALM 0 0 0 0 1033.2 1033.2 0.0
28/10:19pm 5.5 4.3 4.6 94 0.4 CALM 0 0 0 0 1033.2 1033.2 0.0
28/10:00pm 5.8 4.7 4.9 94 0.4 CALM 0 0 0 0 1033.4 1033.4 0.0
28/09:30pm 6.4 4.1 5.7 95 0.3 WNW 7 11 4 6 1033.4 1033.4 0.0
28/09:00pm 6.7 4.1 6.0 95 0.3 SW 9 11 5 6 1033.2 1033.2 0.0
28/08:30pm 6.4 5.0 5.5 94 0.4 SW 2 9 1 5 1033.0 1033.0 0.0
28/08:23pm 6.0 4.8 4.8 92 0.5 CALM 0 0 0 0 1032.9 1032.9 0.0
28/08:00pm 6.5 5.4 5.3 92 0.5 CALM 0 0 0 0 1033.0 1033.0 0.0
28/07:50pm 6.5 5.5 5.5 93 0.4 CALM 0 0 0 0 1033.1 1033.1 0.0
28/07:30pm 7.5 6.3 6.4 93 0.5 WSW 2 6 1 3 1032.9 1032.9 0.0
28/07:00pm 7.8 6.3 6.6 92 0.5 WNW 4 7 2 4 1032.8 1032.8 0.0
28/06:30pm 8.0 7.1 6.1 88 0.9 CALM 0 0 0 0 1032.5 1032.5 0.0
28/06:00pm 9.7 8.4 7.8 88 0.9 WNW 4 9 2 5 1032.2 1032.2 0.0
28/05:30pm 10.4 10.0 8.3 87 1.0 CALM 0 11 0 6 1031.9 1031.9 0.0
28/05:00pm 11.4 10.8 7.5 77 1.9 CALM 0 6 0 3 1031.5 1031.5 0.0
28/04:30pm 13.8 12.5 7.6 66 3.0 ESE 4 7 2 4 1031.5 1031.5 0.0
28/04:00pm 15.6 13.4 7.9 60 3.8 ESE 9 13 5 7 1031.3 1031.3 0.0
28/03:30pm 16.1 13.6 8.3 60 4.0 ESE 11 15 6 8 1031.0 1031.0 0.0
28/03:00pm 16.3 13.4 8.0 58 4.2 SE 13 17 7 9 1030.8 1030.8 0.0
28/02:30pm 17.1 16.5 7.2 52 4.9 CALM 0 0 0 0 1030.7 1030.7 0.0
28/02:00pm 17.1 16.3 6.6 50 5.1 CALM 0 0 0 0 1030.6 1030.6 0.0
28/01:30pm 17.1 14.9 6.3 49 5.3 W 7 13 4 7 1030.8 1030.8 0.0
28/01:00pm 17.0 14.3 7.4 53 4.8 WSW 11 15 6 8 1031.0 1031.0 0.0
28/12:30pm 16.6 13.8 7.0 53 4.8 W 11 15 6 8 1031.4 1031.4 0.0
28/12:00pm 16.0 13.0 7.5 57 4.2 NW 13 19 7 10 1031.9 1031.9 0.0
28/11:30am 15.2 11.3 7.0 58 4.0 NW 17 22 9 12 1032.2 1032.2 0.0
28/11:00am 14.7 11.2 7.0 60 3.7 NW 15 20 8 11 1032.7 1032.7 0.0
28/10:30am 13.9 10.8 7.2 64 3.3 NW 13 17 7 9 1033.0 1033.0 0.0
28/10:00am 12.7 9.2 7.0 68 2.7 NNW 15 19 8 10 1033.2 1033.2 0.0
28/09:30am 11.5 8.3 6.8 73 2.2 NW 13 17 7 9 1033.2 1033.2 0.0
28/09:00am 10.0 6.8 6.9 81 1.4 NW 13 19 7 10 1033.2 1033.2 0.2
28/08:30am 8.5 5.3 6.8 89 0.8 NW 13 17 7 9 1033.0 1033.0 0.2
28/08:00am 6.9 6.1 6.3 96 0.3 CALM 0 0 0 0 1032.8 1032.8 0.2
28/07:30am 5.8 4.7 4.9 94 0.4 CALM 0 0 0 0 1032.7 1032.7 0.2
28/07:00am 5.8 4.6 4.8 93 0.4 CALM 0 6 0 3 1032.3 1032.3 0.2
28/06:30am 6.6 5.6 5.7 94 0.4 CALM 0 0 0 0 1032.1 1032.1 0.2
28/06:00am 6.9 4.7 6.0 94 0.4 WNW 7 13 4 7 1031.7 1031.7 0.2
28/05:30am 6.9 3.9 6.2 95 0.3 NW 11 15 6 8 1031.5 1031.5 0.2
28/05:00am 6.9 4.7 6.0 94 0.4 WNW 7 11 4 6 1031.2 1031.2 0.2
28/04:30am 7.0 4.7 5.9 93 0.5 WNW 7 11 4 6 1031.0 1031.0 0.2
28/04:00am 7.3 5.1 6.4 94 0.4 NW 7 11 4 6 1030.9 1030.9 0.2
28/03:30am 7.3 5.1 6.1 92 0.5 W 7 9 4 5 1031.0 1031.0 0.2
28/03:00am 7.5 4.7 6.8 95 0.3 WNW 11 15 6 8 1031.1 1031.1 0.2
28/02:30am 6.8 4.5 5.6 92 0.5 W 7 9 4 5 1031.1 1031.1 0.2
28/02:00am 7.6 5.6 6.4 92 0.5 WNW 6 9 3 5 1031.1 1031.1 0.2
28/01:30am 7.3 6.0 5.9 91 0.6 WSW 2 9 1 5 1031.1 1031.1 0.2
28/01:00am 8.0 5.4 6.3 89 0.8 SW 9 11 5 6 1031.1 1031.1 0.2
28/12:30am 9.4 7.6 7.8 90 0.8 W 7 11 4 6 1031.3 1031.3 0.2
28/12:00am 9.3 8.8 7.7 90 0.8 CALM 0 0 0 0 1031.2 1031.2 0.2
 
Date/Time
EST
Temp
°C
App
Temp
°C
Dew
Point
Rel
Hum
%
Delta-T
°C
Wind Press
QNH
hPa
Press
MSL
hPa
Rain
since 9 am
mm
Dir
 
Spd
km/h
Gust
km/h
Spd
kts
Gust
kts
27/11:30pm 9.4 8.9 7.8 90 0.8 CALM 0 0 0 0 1031.4 1031.4 0.2
27/11:00pm 9.2 8.7 7.8 91 0.7 CALM 0 0 0 0 1031.4 1031.4 0.2
27/10:30pm 8.9 8.3 7.5 91 0.7 CALM 0 0 0 0 1031.3 1031.3 0.2
27/10:00pm 9.1 8.6 8.0 93 0.5 CALM 0 0 0 0 1031.3 1031.3 0.2
27/09:30pm 8.6 8.0 7.5 93 0.5 CALM 0 0 0 0 1031.4 1031.4 0.2
27/09:00pm 8.4 6.7 7.5 94 0.4 SSW 6 11 3 6 1031.3 1031.3 0.2
27/08:30pm 8.4 7.9 7.8 96 0.3 CALM 0 0 0 0 1031.3 1031.3 0.2
27/08:00pm 7.9 5.9 7.3 96 0.3 SW 7 9 4 5 1031.3 1031.3 0.2
27/07:30pm 6.6 5.6 5.6 93 0.4 CALM 0 0 0 0 1031.0 1031.0 0.2
27/07:00pm 6.5 5.4 5.1 91 0.6 CALM 0 0 0 0 1030.7 1030.7 0.2
27/06:30pm 7.3 6.3 5.8 90 0.7 CALM 0 0 0 0 1030.4 1030.4 0.2
27/06:00pm 8.3 6.3 6.4 88 0.9 W 6 7 3 4 1030.0 1030.0 0.2
27/05:30pm 9.4 8.9 7.7 89 0.8 CALM 0 0 0 0 1029.8 1029.8 0.2
27/05:00pm 10.3 9.5 6.5 77 1.8 CALM 0 0 0 0 1029.7 1029.7 0.2
27/04:30pm 13.0 12.4 7.5 69 2.7 CALM 0 0 0 0 1029.5 1029.5 0.2
27/04:00pm 14.6 14.0 7.6 63 3.4 CALM 0 0 0 0 1029.6 1029.6 0.2
27/03:30pm 15.3 13.3 7.3 59 4.0 ENE 7 11 4 6 1029.5 1029.5 0.2
27/03:00pm 15.5 13.7 8.0 61 3.7 E 7 11 4 6 1029.5 1029.5 0.2
27/02:30pm 15.5 13.3 7.8 60 3.8 E 9 15 5 8 1029.3 1029.3 0.2
27/02:00pm 15.9 13.3 7.9 59 4.0 E 11 15 6 8 1029.4 1029.4 0.2
27/01:30pm 16.2 14.1 8.2 59 4.0 E 9 15 5 8 1029.4 1029.4 0.2

Other Formats:

Comma delimited format used in spreadsheet applications
http://www.bom.gov.au/fwo/IDN60801/IDN60801.95929.axf

JavaScript Object Notation format (JSON) in row-major order
http://www.bom.gov.au/fwo/IDN60801/IDN60801.95929.json